sensor_id;sensor_type;location;lat;lon;timestamp;temperature;humidity
20524;DHT22;10420;48.542;12.270;2023-05-07T00:00:50;10.30;99.90
20524;DHT22;10420;48.542;12.270;2023-05-07T00:05:51;10.30;99.90
20524;DHT22;10420;48.542;12.270;2023-05-07T00:10:53;10.30;99.90
20524;DHT22;10420;48.542;12.270;2023-05-07T00:15:53;10.30;99.90
20524;DHT22;10420;48.542;12.270;2023-05-07T00:20:54;10.20;99.90
20524;DHT22;10420;48.542;12.270;2023-05-07T00:25:56;10.10;99.90
20524;DHT22;10420;48.542;12.270;2023-05-07T00:30:56;10.20;99.90
20524;DHT22;10420;48.542;12.270;2023-05-07T00:35:57;10.10;99.90
20524;DHT22;10420;48.542;12.270;2023-05-07T00:40:58;10.30;99.90
20524;DHT22;10420;48.542;12.270;2023-05-07T00:45:58;10.20;99.90
20524;DHT22;10420;48.542;12.270;2023-05-07T00:50:59;10.10;99.90
20524;DHT22;10420;48.542;12.270;2023-05-07T00:55:59;10.00;99.90
20524;DHT22;10420;48.542;12.270;2023-05-07T01:01:02;9.90;99.90
20524;DHT22;10420;48.542;12.270;2023-05-07T01:06:03;10.00;99.90
20524;DHT22;10420;48.542;12.270;2023-05-07T01:11:06;9.90;99.90
20524;DHT22;10420;48.542;12.270;2023-05-07T01:16:09;10.00;99.90
20524;DHT22;10420;48.542;12.270;2023-05-07T01:21:11;9.90;99.90
20524;DHT22;10420;48.542;12.270;2023-05-07T01:26:11;9.90;99.90
20524;DHT22;10420;48.542;12.270;2023-05-07T01:31:12;9.80;99.90
20524;DHT22;10420;48.542;12.270;2023-05-07T01:36:14;9.80;99.90
20524;DHT22;10420;48.542;12.270;2023-05-07T01:41:15;9.80;99.90
20524;DHT22;10420;48.542;12.270;2023-05-07T01:46:17;9.70;99.90
20524;DHT22;10420;48.542;12.270;2023-05-07T01:51:18;9.60;99.90
20524;DHT22;10420;48.542;12.270;2023-05-07T01:56:20;9.80;99.90
20524;DHT22;10420;48.542;12.270;2023-05-07T02:01:21;9.70;99.90
20524;DHT22;10420;48.542;12.270;2023-05-07T02:06:22;9.60;99.90
20524;DHT22;10420;48.542;12.270;2023-05-07T02:11:22;9.60;99.90
20524;DHT22;10420;48.542;12.270;2023-05-07T02:16:23;9.70;99.90
20524;DHT22;10420;48.542;12.270;2023-05-07T02:21:24;9.80;99.90
20524;DHT22;10420;48.542;12.270;2023-05-07T02:26:25;9.50;99.90
20524;DHT22;10420;48.542;12.270;2023-05-07T02:31:26;9.50;99.90
20524;DHT22;10420;48.542;12.270;2023-05-07T02:36:27;9.50;99.90
20524;DHT22;10420;48.542;12.270;2023-05-07T02:41:27;9.60;99.90
20524;DHT22;10420;48.542;12.270;2023-05-07T02:46:28;9.50;99.90
20524;DHT22;10420;48.542;12.270;2023-05-07T02:51:30;9.60;99.90
20524;DHT22;10420;48.542;12.270;2023-05-07T02:56:31;9.50;99.90
20524;DHT22;10420;48.542;12.270;2023-05-07T03:01:31;9.40;99.90
20524;DHT22;10420;48.542;12.270;2023-05-07T03:06:32;9.50;99.90
20524;DHT22;10420;48.542;12.270;2023-05-07T03:11:33;9.40;99.90
20524;DHT22;10420;48.542;12.270;2023-05-07T03:16:33;9.30;99.90
20524;DHT22;10420;48.542;12.270;2023-05-07T03:21:34;9.40;99.90
20524;DHT22;10420;48.542;12.270;2023-05-07T03:26:34;9.40;99.90
20524;DHT22;10420;48.542;12.270;2023-05-07T03:31:35;9.40;99.90
20524;DHT22;10420;48.542;12.270;2023-05-07T03:36:36;9.30;99.90
20524;DHT22;10420;48.542;12.270;2023-05-07T03:41:36;9.30;99.90
20524;DHT22;10420;48.542;12.270;2023-05-07T03:46:37;9.40;99.90
20524;DHT22;10420;48.542;12.270;2023-05-07T03:51:38;9.40;99.90
20524;DHT22;10420;48.542;12.270;2023-05-07T03:56:39;9.60;99.90
20524;DHT22;10420;48.542;12.270;2023-05-07T04:01:40;9.50;99.90
20524;DHT22;10420;48.542;12.270;2023-05-07T04:06:40;9.60;99.90
20524;DHT22;10420;48.542;12.270;2023-05-07T04:11:41;9.80;99.90
20524;DHT22;10420;48.542;12.270;2023-05-07T04:16:42;9.90;99.90
20524;DHT22;10420;48.542;12.270;2023-05-07T04:21:43;10.00;99.90
20524;DHT22;10420;48.542;12.270;2023-05-07T04:26:43;10.10;99.90
20524;DHT22;10420;48.542;12.270;2023-05-07T04:31:44;10.40;99.90
20524;DHT22;10420;48.542;12.270;2023-05-07T04:36:45;10.40;99.90
20524;DHT22;10420;48.542;12.270;2023-05-07T04:41:46;10.70;99.90
20524;DHT22;10420;48.542;12.270;2023-05-07T04:46:47;11.00;99.90
20524;DHT22;10420;48.542;12.270;2023-05-07T04:51:47;11.40;99.90
20524;DHT22;10420;48.542;12.270;2023-05-07T04:56:48;14.20;99.90
20524;DHT22;10420;48.542;12.270;2023-05-07T05:01:49;16.80;99.90
20524;DHT22;10420;48.542;12.270;2023-05-07T05:06:49;17.90;99.90
20524;DHT22;10420;48.542;12.270;2023-05-07T05:11:50;19.70;99.90
20524;DHT22;10420;48.542;12.270;2023-05-07T05:16:50;19.40;99.90
20524;DHT22;10420;48.542;12.270;2023-05-07T05:21:51;18.30;99.90
20524;DHT22;10420;48.542;12.270;2023-05-07T05:26:53;20.30;99.90
20524;DHT22;10420;48.542;12.270;2023-05-07T05:31:54;20.30;99.90
20524;DHT22;10420;48.542;12.270;2023-05-07T05:36:54;19.70;99.90
20524;DHT22;10420;48.542;12.270;2023-05-07T05:41:55;20.50;99.90
20524;DHT22;10420;48.542;12.270;2023-05-07T05:46:56;21.50;99.90
20524;DHT22;10420;48.542;12.270;2023-05-07T05:51:59;21.90;99.90
20524;DHT22;10420;48.542;12.270;2023-05-07T05:57:00;17.70;99.90
20524;DHT22;10420;48.542;12.270;2023-05-07T06:02:00;19.40;99.90
20524;DHT22;10420;48.542;12.270;2023-05-07T06:07:01;19.30;99.90
20524;DHT22;10420;48.542;12.270;2023-05-07T06:12:02;21.20;99.90
20524;DHT22;10420;48.542;12.270;2023-05-07T06:17:03;23.40;99.90
20524;DHT22;10420;48.542;12.270;2023-05-07T06:22:03;24.20;99.90
20524;DHT22;10420;48.542;12.270;2023-05-07T06:27:04;24.10;99.90
20524;DHT22;10420;48.542;12.270;2023-05-07T06:32:08;22.20;99.90
20524;DHT22;10420;48.542;12.270;2023-05-07T06:37:09;23.80;99.90
20524;DHT22;10420;48.542;12.270;2023-05-07T06:42:10;22.90;99.90
20524;DHT22;10420;48.542;12.270;2023-05-07T06:47:11;22.80;99.90
20524;DHT22;10420;48.542;12.270;2023-05-07T06:52:11;23.80;99.90
20524;DHT22;10420;48.542;12.270;2023-05-07T06:57:12;23.80;99.90
20524;DHT22;10420;48.542;12.270;2023-05-07T07:02:13;25.20;99.90
20524;DHT22;10420;48.542;12.270;2023-05-07T07:07:13;24.90;99.90
20524;DHT22;10420;48.542;12.270;2023-05-07T07:12:14;24.60;99.90
20524;DHT22;10420;48.542;12.270;2023-05-07T07:17:14;23.60;99.90
20524;DHT22;10420;48.542;12.270;2023-05-07T07:22:15;23.90;99.90
20524;DHT22;10420;48.542;12.270;2023-05-07T07:27:16;23.10;99.90
20524;DHT22;10420;48.542;12.270;2023-05-07T07:32:16;21.50;99.90
20524;DHT22;10420;48.542;12.270;2023-05-07T07:37:17;23.80;99.90
20524;DHT22;10420;48.542;12.270;2023-05-07T07:42:18;23.90;99.90
20524;DHT22;10420;48.542;12.270;2023-05-07T07:47:18;24.30;99.90
20524;DHT22;10420;48.542;12.270;2023-05-07T07:52:19;24.10;99.90
20524;DHT22;10420;48.542;12.270;2023-05-07T07:57:20;25.20;99.90
20524;DHT22;10420;48.542;12.270;2023-05-07T08:02:21;25.50;99.90
20524;DHT22;10420;48.542;12.270;2023-05-07T08:07:22;24.60;99.90
20524;DHT22;10420;48.542;12.270;2023-05-07T08:12:23;24.30;99.90
20524;DHT22;10420;48.542;12.270;2023-05-07T08:17:24;22.70;99.90
20524;DHT22;10420;48.542;12.270;2023-05-07T08:22:25;23.60;99.90
20524;DHT22;10420;48.542;12.270;2023-05-07T08:27:26;24.20;99.90
20524;DHT22;10420;48.542;12.270;2023-05-07T08:32:26;24.60;99.90
20524;DHT22;10420;48.542;12.270;2023-05-07T08:37:28;23.50;99.90
20524;DHT22;10420;48.542;12.270;2023-05-07T08:42:29;23.80;99.90
20524;DHT22;10420;48.542;12.270;2023-05-07T08:47:36;24.60;99.90
20524;DHT22;10420;48.542;12.270;2023-05-07T08:52:40;23.80;99.90
20524;DHT22;10420;48.542;12.270;2023-05-07T08:57:41;23.70;99.90
20524;DHT22;10420;48.542;12.270;2023-05-07T09:02:41;22.20;99.90
20524;DHT22;10420;48.542;12.270;2023-05-07T09:07:42;21.80;99.90
20524;DHT22;10420;48.542;12.270;2023-05-07T09:12:43;22.60;99.90
20524;DHT22;10420;48.542;12.270;2023-05-07T09:17:43;21.40;99.90
20524;DHT22;10420;48.542;12.270;2023-05-07T09:22:44;21.00;99.90
20524;DHT22;10420;48.542;12.270;2023-05-07T09:27:45;22.30;99.90
20524;DHT22;10420;48.542;12.270;2023-05-07T09:32:46;20.60;99.90
20524;DHT22;10420;48.542;12.270;2023-05-07T09:37:47;22.00;99.90
20524;DHT22;10420;48.542;12.270;2023-05-07T09:42:48;21.60;99.90
20524;DHT22;10420;48.542;12.270;2023-05-07T09:47:56;20.30;99.90
20524;DHT22;10420;48.542;12.270;2023-05-07T09:52:57;20.30;99.90
20524;DHT22;10420;48.542;12.270;2023-05-07T09:57:58;20.10;99.90
20524;DHT22;10420;48.542;12.270;2023-05-07T10:03:00;21.10;99.90
20524;DHT22;10420;48.542;12.270;2023-05-07T10:08:01;21.60;99.90
20524;DHT22;10420;48.542;12.270;2023-05-07T10:13:03;21.10;99.90
20524;DHT22;10420;48.542;12.270;2023-05-07T10:18:06;21.10;99.90
20524;DHT22;10420;48.542;12.270;2023-05-07T10:23:08;20.90;99.90
20524;DHT22;10420;48.542;12.270;2023-05-07T10:28:13;20.80;99.90
20524;DHT22;10420;48.542;12.270;2023-05-07T10:33:17;21.60;99.90
20524;DHT22;10420;48.542;12.270;2023-05-07T10:38:20;22.40;99.90
20524;DHT22;10420;48.542;12.270;2023-05-07T10:43:21;21.70;99.90
20524;DHT22;10420;48.542;12.270;2023-05-07T10:48:21;21.10;99.90
20524;DHT22;10420;48.542;12.270;2023-05-07T10:53:23;20.70;99.90
20524;DHT22;10420;48.542;12.270;2023-05-07T10:58:27;20.50;99.90
20524;DHT22;10420;48.542;12.270;2023-05-07T11:03:29;20.30;99.90
20524;DHT22;10420;48.542;12.270;2023-05-07T11:13:52;20.30;99.90
20524;DHT22;10420;48.542;12.270;2023-05-07T11:18:54;20.20;99.90
20524;DHT22;10420;48.542;12.270;2023-05-07T11:23:55;20.30;99.90
20524;DHT22;10420;48.542;12.270;2023-05-07T11:28:57;20.90;99.90
20524;DHT22;10420;48.542;12.270;2023-05-07T11:33:59;21.80;99.90
20524;DHT22;10420;48.542;12.270;2023-05-07T11:39:00;21.90;99.90
20524;DHT22;10420;48.542;12.270;2023-05-07T11:44:01;22.30;99.90
20524;DHT22;10420;48.542;12.270;2023-05-07T11:49:01;22.00;99.90
20524;DHT22;10420;48.542;12.270;2023-05-07T11:54:04;22.40;99.90
20524;DHT22;10420;48.542;12.270;2023-05-07T11:59:08;22.20;99.90
20524;DHT22;10420;48.542;12.270;2023-05-07T12:04:09;22.20;99.90
20524;DHT22;10420;48.542;12.270;2023-05-07T12:09:10;22.60;99.90
20524;DHT22;10420;48.542;12.270;2023-05-07T12:14:12;22.60;99.90
20524;DHT22;10420;48.542;12.270;2023-05-07T12:19:13;22.60;99.90
20524;DHT22;10420;48.542;12.270;2023-05-07T12:24:15;22.40;99.90
20524;DHT22;10420;48.542;12.270;2023-05-07T12:29:15;22.00;99.90
20524;DHT22;10420;48.542;12.270;2023-05-07T12:34:16;21.50;99.90
20524;DHT22;10420;48.542;12.270;2023-05-07T12:39:17;21.40;99.90
20524;DHT22;10420;48.542;12.270;2023-05-07T12:44:17;21.60;99.90
20524;DHT22;10420;48.542;12.270;2023-05-07T12:49:18;21.30;99.90
20524;DHT22;10420;48.542;12.270;2023-05-07T12:54:32;21.70;99.90
20524;DHT22;10420;48.542;12.270;2023-05-07T12:59:40;21.80;99.90
20524;DHT22;10420;48.542;12.270;2023-05-07T13:04:41;21.90;99.90
20524;DHT22;10420;48.542;12.270;2023-05-07T13:09:41;21.70;99.90
20524;DHT22;10420;48.542;12.270;2023-05-07T13:14:42;21.40;99.90
20524;DHT22;10420;48.542;12.270;2023-05-07T13:19:43;21.10;99.90
20524;DHT22;10420;48.542;12.270;2023-05-07T13:24:43;21.20;99.90
20524;DHT22;10420;48.542;12.270;2023-05-07T13:29:44;21.40;99.90
20524;DHT22;10420;48.542;12.270;2023-05-07T13:34:45;21.50;99.90
20524;DHT22;10420;48.542;12.270;2023-05-07T13:39:45;21.30;99.90
20524;DHT22;10420;48.542;12.270;2023-05-07T13:44:46;21.10;99.90
20524;DHT22;10420;48.542;12.270;2023-05-07T13:49:47;21.10;99.90
20524;DHT22;10420;48.542;12.270;2023-05-07T13:54:49;21.30;99.90
20524;DHT22;10420;48.542;12.270;2023-05-07T13:59:52;21.50;99.90
20524;DHT22;10420;48.542;12.270;2023-05-07T14:04:53;21.30;99.90
20524;DHT22;10420;48.542;12.270;2023-05-07T14:09:54;21.60;99.90
20524;DHT22;10420;48.542;12.270;2023-05-07T14:14:55;21.50;99.90
20524;DHT22;10420;48.542;12.270;2023-05-07T14:19:59;21.40;99.90
20524;DHT22;10420;48.542;12.270;2023-05-07T14:25:00;21.60;99.90
20524;DHT22;10420;48.542;12.270;2023-05-07T14:30:00;21.60;99.90
20524;DHT22;10420;48.542;12.270;2023-05-07T14:35:01;21.40;99.90
20524;DHT22;10420;48.542;12.270;2023-05-07T14:40:02;21.40;99.90
20524;DHT22;10420;48.542;12.270;2023-05-07T14:45:03;21.40;99.90
20524;DHT22;10420;48.542;12.270;2023-05-07T14:50:04;21.30;99.90
20524;DHT22;10420;48.542;12.270;2023-05-07T14:55:05;21.40;99.90
20524;DHT22;10420;48.542;12.270;2023-05-07T15:00:06;21.30;99.90
20524;DHT22;10420;48.542;12.270;2023-05-07T15:05:07;21.30;99.90
20524;DHT22;10420;48.542;12.270;2023-05-07T15:10:08;21.10;99.90
20524;DHT22;10420;48.542;12.270;2023-05-07T15:15:09;21.10;99.90
20524;DHT22;10420;48.542;12.270;2023-05-07T15:20:10;21.00;99.90
20524;DHT22;10420;48.542;12.270;2023-05-07T15:25:11;21.20;99.90
20524;DHT22;10420;48.542;12.270;2023-05-07T15:30:12;21.00;99.90
20524;DHT22;10420;48.542;12.270;2023-05-07T15:35:14;21.10;99.90
20524;DHT22;10420;48.542;12.270;2023-05-07T15:40:15;20.90;99.90
20524;DHT22;10420;48.542;12.270;2023-05-07T15:45:16;20.50;99.90
20524;DHT22;10420;48.542;12.270;2023-05-07T15:50:17;20.30;99.90
20524;DHT22;10420;48.542;12.270;2023-05-07T15:55:17;20.10;99.90
20524;DHT22;10420;48.542;12.270;2023-05-07T16:00:18;20.10;99.90
20524;DHT22;10420;48.542;12.270;2023-05-07T16:05:19;20.00;99.90
20524;DHT22;10420;48.542;12.270;2023-05-07T16:10:19;19.90;99.90
20524;DHT22;10420;48.542;12.270;2023-05-07T16:15:20;19.90;99.90
20524;DHT22;10420;48.542;12.270;2023-05-07T16:20:21;20.00;99.90
20524;DHT22;10420;48.542;12.270;2023-05-07T16:25:22;19.70;99.90
20524;DHT22;10420;48.542;12.270;2023-05-07T16:30:23;19.70;99.90
20524;DHT22;10420;48.542;12.270;2023-05-07T16:35:24;19.50;99.90
20524;DHT22;10420;48.542;12.270;2023-05-07T16:40:24;19.40;99.90
20524;DHT22;10420;48.542;12.270;2023-05-07T16:45:25;19.30;99.90
20524;DHT22;10420;48.542;12.270;2023-05-07T16:50:26;19.20;99.90
20524;DHT22;10420;48.542;12.270;2023-05-07T16:55:27;19.10;99.90
20524;DHT22;10420;48.542;12.270;2023-05-07T17:00:30;19.10;99.90
20524;DHT22;10420;48.542;12.270;2023-05-07T17:05:31;19.00;99.90
20524;DHT22;10420;48.542;12.270;2023-05-07T17:10:31;18.90;99.90
20524;DHT22;10420;48.542;12.270;2023-05-07T17:15:32;18.70;99.90
20524;DHT22;10420;48.542;12.270;2023-05-07T17:20:33;18.60;99.90
20524;DHT22;10420;48.542;12.270;2023-05-07T17:25:34;18.50;99.90
20524;DHT22;10420;48.542;12.270;2023-05-07T17:30:36;18.50;99.90
20524;DHT22;10420;48.542;12.270;2023-05-07T17:35:37;18.30;99.90
20524;DHT22;10420;48.542;12.270;2023-05-07T17:40:37;18.20;99.90
20524;DHT22;10420;48.542;12.270;2023-05-07T17:45:38;18.00;99.90
20524;DHT22;10420;48.542;12.270;2023-05-07T17:50:39;18.00;99.90
20524;DHT22;10420;48.542;12.270;2023-05-07T17:55:43;17.90;99.90
20524;DHT22;10420;48.542;12.270;2023-05-07T18:00:44;17.70;99.90
20524;DHT22;10420;48.542;12.270;2023-05-07T18:05:45;17.50;99.90
20524;DHT22;10420;48.542;12.270;2023-05-07T18:10:47;17.40;99.90
20524;DHT22;10420;48.542;12.270;2023-05-07T18:15:47;17.30;99.90
20524;DHT22;10420;48.542;12.270;2023-05-07T18:20:49;17.20;99.90
20524;DHT22;10420;48.542;12.270;2023-05-07T18:25:50;17.20;99.90
20524;DHT22;10420;48.542;12.270;2023-05-07T18:30:50;17.20;99.90
20524;DHT22;10420;48.542;12.270;2023-05-07T18:35:51;17.10;99.90
20524;DHT22;10420;48.542;12.270;2023-05-07T18:40:52;17.00;99.90
20524;DHT22;10420;48.542;12.270;2023-05-07T18:45:52;16.90;99.90
20524;DHT22;10420;48.542;12.270;2023-05-07T18:50:53;16.80;99.90
20524;DHT22;10420;48.542;12.270;2023-05-07T18:55:54;16.70;99.90
20524;DHT22;10420;48.542;12.270;2023-05-07T19:00:54;16.60;99.90
20524;DHT22;10420;48.542;12.270;2023-05-07T19:05:55;16.50;99.90
20524;DHT22;10420;48.542;12.270;2023-05-07T19:10:56;16.50;99.90
20524;DHT22;10420;48.542;12.270;2023-05-07T19:15:57;16.40;99.90
20524;DHT22;10420;48.542;12.270;2023-05-07T19:20:58;16.30;99.90
20524;DHT22;10420;48.542;12.270;2023-05-07T19:25:58;16.30;99.90
20524;DHT22;10420;48.542;12.270;2023-05-07T19:30:59;16.10;99.90
20524;DHT22;10420;48.542;12.270;2023-05-07T19:36:00;16.00;99.90
20524;DHT22;10420;48.542;12.270;2023-05-07T19:41:01;16.00;99.90
20524;DHT22;10420;48.542;12.270;2023-05-07T19:46:03;15.90;99.90
20524;DHT22;10420;48.542;12.270;2023-05-07T19:51:04;15.90;99.90
20524;DHT22;10420;48.542;12.270;2023-05-07T19:56:06;15.80;99.90
20524;DHT22;10420;48.542;12.270;2023-05-07T20:01:07;15.80;99.90
20524;DHT22;10420;48.542;12.270;2023-05-07T20:06:08;15.70;99.90
20524;DHT22;10420;48.542;12.270;2023-05-07T20:11:08;15.60;99.90
20524;DHT22;10420;48.542;12.270;2023-05-07T20:16:10;15.50;99.90
20524;DHT22;10420;48.542;12.270;2023-05-07T20:21:12;15.40;99.90
20524;DHT22;10420;48.542;12.270;2023-05-07T20:26:32;15.30;99.90
20524;DHT22;10420;48.542;12.270;2023-05-07T20:31:33;15.20;99.90
20524;DHT22;10420;48.542;12.270;2023-05-07T20:36:34;15.10;99.90
20524;DHT22;10420;48.542;12.270;2023-05-07T20:41:35;15.00;99.90
20524;DHT22;10420;48.542;12.270;2023-05-07T20:46:36;15.00;99.90
20524;DHT22;10420;48.542;12.270;2023-05-07T20:51:37;14.90;99.90
20524;DHT22;10420;48.542;12.270;2023-05-07T20:56:38;14.80;99.90
20524;DHT22;10420;48.542;12.270;2023-05-07T21:01:38;14.80;99.90
20524;DHT22;10420;48.542;12.270;2023-05-07T21:06:41;14.80;99.90
20524;DHT22;10420;48.542;12.270;2023-05-07T21:11:42;14.70;99.90
20524;DHT22;10420;48.542;12.270;2023-05-07T21:16:43;14.60;99.90
20524;DHT22;10420;48.542;12.270;2023-05-07T21:21:44;14.60;99.90
20524;DHT22;10420;48.542;12.270;2023-05-07T21:26:45;14.50;99.90
20524;DHT22;10420;48.542;12.270;2023-05-07T21:31:45;14.50;99.90
20524;DHT22;10420;48.542;12.270;2023-05-07T21:36:46;14.40;99.90
20524;DHT22;10420;48.542;12.270;2023-05-07T21:41:47;14.30;99.90
20524;DHT22;10420;48.542;12.270;2023-05-07T21:46:47;14.30;99.90
20524;DHT22;10420;48.542;12.270;2023-05-07T21:51:48;14.20;99.90
20524;DHT22;10420;48.542;12.270;2023-05-07T21:56:49;14.20;99.90
20524;DHT22;10420;48.542;12.270;2023-05-07T22:01:49;14.20;99.90
20524;DHT22;10420;48.542;12.270;2023-05-07T22:06:50;14.00;99.90
20524;DHT22;10420;48.542;12.270;2023-05-07T22:11:50;14.00;99.90
20524;DHT22;10420;48.542;12.270;2023-05-07T22:16:51;14.00;99.90
20524;DHT22;10420;48.542;12.270;2023-05-07T22:21:52;13.90;99.90
20524;DHT22;10420;48.542;12.270;2023-05-07T22:26:52;13.80;99.90
20524;DHT22;10420;48.542;12.270;2023-05-07T22:31:53;13.80;99.90
20524;DHT22;10420;48.542;12.270;2023-05-07T22:36:53;13.80;99.90
20524;DHT22;10420;48.542;12.270;2023-05-07T22:41:54;13.70;99.90
20524;DHT22;10420;48.542;12.270;2023-05-07T22:46:55;13.70;99.90
20524;DHT22;10420;48.542;12.270;2023-05-07T22:51:55;13.60;99.90
20524;DHT22;10420;48.542;12.270;2023-05-07T22:56:56;13.60;99.90
20524;DHT22;10420;48.542;12.270;2023-05-07T23:01:58;13.60;99.90
20524;DHT22;10420;48.542;12.270;2023-05-07T23:06:59;13.50;99.90
20524;DHT22;10420;48.542;12.270;2023-05-07T23:11:59;13.60;99.90
20524;DHT22;10420;48.542;12.270;2023-05-07T23:17:00;13.50;99.90
20524;DHT22;10420;48.542;12.270;2023-05-07T23:22:01;13.40;99.90
20524;DHT22;10420;48.542;12.270;2023-05-07T23:27:05;13.40;99.90
20524;DHT22;10420;48.542;12.270;2023-05-07T23:32:06;13.30;99.90
20524;DHT22;10420;48.542;12.270;2023-05-07T23:37:08;13.30;99.90
20524;DHT22;10420;48.542;12.270;2023-05-07T23:42:09;13.30;99.90
20524;DHT22;10420;48.542;12.270;2023-05-07T23:47:10;13.10;99.90
20524;DHT22;10420;48.542;12.270;2023-05-07T23:52:11;13.20;99.90
20524;DHT22;10420;48.542;12.270;2023-05-07T23:57:11;13.20;99.90
